sensor_id;sensor_type;location;lat;lon;timestamp;P1;durP1;ratioP1;P2;durP2;ratioP2
16973;SDS011;8603;46.944;7.412;2023-02-28T00:01:09;7.20;;;4.87;;
16973;SDS011;8603;46.944;7.412;2023-02-28T00:03:36;6.50;;;5.80;;
16973;SDS011;8603;46.944;7.412;2023-02-28T00:06:02;8.37;;;5.67;;
16973;SDS011;8603;46.944;7.412;2023-02-28T00:08:29;7.50;;;5.60;;
16973;SDS011;8603;46.944;7.412;2023-02-28T00:10:55;6.83;;;5.30;;
16973;SDS011;8603;46.944;7.412;2023-02-28T00:13:20;7.43;;;5.57;;
16973;SDS011;8603;46.944;7.412;2023-02-28T00:15:46;8.10;;;6.00;;
16973;SDS011;8603;46.944;7.412;2023-02-28T00:18:12;5.50;;;4.97;;
16973;SDS011;8603;46.944;7.412;2023-02-28T00:20:38;6.67;;;5.10;;
16973;SDS011;8603;46.944;7.412;2023-02-28T00:23:04;7.80;;;5.63;;
16973;SDS011;8603;46.944;7.412;2023-02-28T00:25:30;8.17;;;5.83;;
16973;SDS011;8603;46.944;7.412;2023-02-28T00:27:55;7.93;;;5.87;;
16973;SDS011;8603;46.944;7.412;2023-02-28T00:30:21;6.67;;;5.40;;
16973;SDS011;8603;46.944;7.412;2023-02-28T00:32:48;7.80;;;5.50;;
16973;SDS011;8603;46.944;7.412;2023-02-28T00:35:15;7.23;;;5.10;;
16973;SDS011;8603;46.944;7.412;2023-02-28T00:37:41;7.90;;;6.10;;
16973;SDS011;8603;46.944;7.412;2023-02-28T00:40:07;10.27;;;5.37;;
16973;SDS011;8603;46.944;7.412;2023-02-28T00:42:34;7.17;;;5.27;;
16973;SDS011;8603;46.944;7.412;2023-02-28T00:45:01;7.73;;;5.40;;
16973;SDS011;8603;46.944;7.412;2023-02-28T00:47:29;7.67;;;5.87;;
16973;SDS011;8603;46.944;7.412;2023-02-28T00:49:55;8.47;;;5.83;;
16973;SDS011;8603;46.944;7.412;2023-02-28T00:52:21;7.50;;;5.20;;
16973;SDS011;8603;46.944;7.412;2023-02-28T00:54:46;8.10;;;5.50;;
16973;SDS011;8603;46.944;7.412;2023-02-28T00:57:12;8.30;;;5.70;;
16973;SDS011;8603;46.944;7.412;2023-02-28T00:59:38;8.20;;;6.07;;
16973;SDS011;8603;46.944;7.412;2023-02-28T01:02:03;7.50;;;5.80;;
16973;SDS011;8603;46.944;7.412;2023-02-28T01:04:29;6.83;;;5.93;;
16973;SDS011;8603;46.944;7.412;2023-02-28T01:06:55;7.47;;;6.00;;
16973;SDS011;8603;46.944;7.412;2023-02-28T01:09:21;6.90;;;5.60;;
16973;SDS011;8603;46.944;7.412;2023-02-28T01:11:46;7.87;;;6.20;;
16973;SDS011;8603;46.944;7.412;2023-02-28T01:14:13;5.90;;;5.27;;
16973;SDS011;8603;46.944;7.412;2023-02-28T01:16:40;7.00;;;5.40;;
16973;SDS011;8603;46.944;7.412;2023-02-28T01:19:06;7.87;;;5.73;;
16973;SDS011;8603;46.944;7.412;2023-02-28T01:21:31;7.37;;;5.70;;
16973;SDS011;8603;46.944;7.412;2023-02-28T01:23:57;6.20;;;5.60;;
16973;SDS011;8603;46.944;7.412;2023-02-28T01:26:23;7.90;;;5.90;;
16973;SDS011;8603;46.944;7.412;2023-02-28T01:28:49;8.97;;;5.90;;
16973;SDS011;8603;46.944;7.412;2023-02-28T01:31:16;6.77;;;5.80;;
16973;SDS011;8603;46.944;7.412;2023-02-28T01:33:43;6.53;;;4.97;;
16973;SDS011;8603;46.944;7.412;2023-02-28T01:36:13;7.93;;;6.20;;
16973;SDS011;8603;46.944;7.412;2023-02-28T01:38:40;14.93;;;6.17;;
16973;SDS011;8603;46.944;7.412;2023-02-28T01:41:07;8.97;;;6.07;;
16973;SDS011;8603;46.944;7.412;2023-02-28T01:46:07;7.40;;;6.13;;
16973;SDS011;8603;46.944;7.412;2023-02-28T01:48:34;7.60;;;5.93;;
16973;SDS011;8603;46.944;7.412;2023-02-28T01:51:07;9.23;;;6.53;;
16973;SDS011;8603;46.944;7.412;2023-02-28T01:53:42;6.97;;;5.30;;
16973;SDS011;8603;46.944;7.412;2023-02-28T01:56:11;6.90;;;5.33;;
16973;SDS011;8603;46.944;7.412;2023-02-28T01:58:41;8.10;;;6.10;;
16973;SDS011;8603;46.944;7.412;2023-02-28T02:01:07;7.90;;;6.07;;
16973;SDS011;8603;46.944;7.412;2023-02-28T02:03:32;7.43;;;5.80;;
16973;SDS011;8603;46.944;7.412;2023-02-28T02:06:01;6.97;;;6.23;;
16973;SDS011;8603;46.944;7.412;2023-02-28T02:08:28;9.00;;;6.33;;
16973;SDS011;8603;46.944;7.412;2023-02-28T02:10:55;8.60;;;5.53;;
16973;SDS011;8603;46.944;7.412;2023-02-28T02:13:43;9.27;;;6.00;;
16973;SDS011;8603;46.944;7.412;2023-02-28T02:19:04;7.93;;;5.60;;
16973;SDS011;8603;46.944;7.412;2023-02-28T02:35:56;11.47;;;6.37;;
16973;SDS011;8603;46.944;7.412;2023-02-28T02:41:23;8.37;;;6.13;;
16973;SDS011;8603;46.944;7.412;2023-02-28T02:44:07;8.87;;;6.37;;
16973;SDS011;8603;46.944;7.412;2023-02-28T02:46:48;7.37;;;6.03;;
16973;SDS011;8603;46.944;7.412;2023-02-28T02:49:34;8.33;;;6.40;;
16973;SDS011;8603;46.944;7.412;2023-02-28T02:52:02;8.30;;;6.10;;
16973;SDS011;8603;46.944;7.412;2023-02-28T02:54:33;9.20;;;6.57;;
16973;SDS011;8603;46.944;7.412;2023-02-28T02:57:03;9.10;;;6.40;;
16973;SDS011;8603;46.944;7.412;2023-02-28T02:59:33;8.33;;;6.77;;
16973;SDS011;8603;46.944;7.412;2023-02-28T03:02:04;9.27;;;6.47;;
16973;SDS011;8603;46.944;7.412;2023-02-28T03:04:35;10.10;;;6.27;;
16973;SDS011;8603;46.944;7.412;2023-02-28T03:07:07;7.33;;;6.13;;
16973;SDS011;8603;46.944;7.412;2023-02-28T03:09:33;8.73;;;5.93;;
16973;SDS011;8603;46.944;7.412;2023-02-28T03:12:00;9.87;;;6.67;;
16973;SDS011;8603;46.944;7.412;2023-02-28T03:22:49;8.60;;;6.73;;
16973;SDS011;8603;46.944;7.412;2023-02-28T03:28:23;9.77;;;5.93;;
16973;SDS011;8603;46.944;7.412;2023-02-28T03:31:07;10.20;;;6.37;;
16973;SDS011;8603;46.944;7.412;2023-02-28T03:33:43;7.00;;;5.60;;
16973;SDS011;8603;46.944;7.412;2023-02-28T03:36:19;8.23;;;5.07;;
16973;SDS011;8603;46.944;7.412;2023-02-28T03:38:59;7.00;;;5.23;;
16973;SDS011;8603;46.944;7.412;2023-02-28T03:41:37;7.30;;;5.30;;
16973;SDS011;8603;46.944;7.412;2023-02-28T03:44:10;7.50;;;5.27;;
16973;SDS011;8603;46.944;7.412;2023-02-28T03:46:49;7.70;;;5.30;;
16973;SDS011;8603;46.944;7.412;2023-02-28T03:49:22;7.97;;;5.40;;
16973;SDS011;8603;46.944;7.412;2023-02-28T03:51:55;8.27;;;5.17;;
16973;SDS011;8603;46.944;7.412;2023-02-28T03:54:26;7.83;;;5.57;;
16973;SDS011;8603;46.944;7.412;2023-02-28T03:56:59;9.57;;;5.60;;
16973;SDS011;8603;46.944;7.412;2023-02-28T03:59:33;7.13;;;5.23;;
16973;SDS011;8603;46.944;7.412;2023-02-28T04:02:03;8.27;;;5.70;;
16973;SDS011;8603;46.944;7.412;2023-02-28T04:04:29;9.00;;;6.20;;
16973;SDS011;8603;46.944;7.412;2023-02-28T04:07:03;7.70;;;5.40;;
16973;SDS011;8603;46.944;7.412;2023-02-28T04:09:30;7.83;;;6.20;;
16973;SDS011;8603;46.944;7.412;2023-02-28T04:11:55;8.33;;;5.73;;
16973;SDS011;8603;46.944;7.412;2023-02-28T04:14:21;7.80;;;6.17;;
16973;SDS011;8603;46.944;7.412;2023-02-28T04:16:48;8.47;;;5.73;;
16973;SDS011;8603;46.944;7.412;2023-02-28T04:19:14;6.53;;;5.00;;
16973;SDS011;8603;46.944;7.412;2023-02-28T04:21:47;7.00;;;5.70;;
16973;SDS011;8603;46.944;7.412;2023-02-28T04:24:16;7.67;;;5.90;;
16973;SDS011;8603;46.944;7.412;2023-02-28T04:26:45;7.23;;;5.53;;
16973;SDS011;8603;46.944;7.412;2023-02-28T04:29:12;6.07;;;5.27;;
16973;SDS011;8603;46.944;7.412;2023-02-28T04:31:39;8.00;;;6.50;;
16973;SDS011;8603;46.944;7.412;2023-02-28T04:34:05;6.93;;;6.03;;
16973;SDS011;8603;46.944;7.412;2023-02-28T04:36:31;7.37;;;6.17;;
16973;SDS011;8603;46.944;7.412;2023-02-28T04:38:57;7.40;;;6.20;;
16973;SDS011;8603;46.944;7.412;2023-02-28T04:41:22;8.30;;;5.50;;
16973;SDS011;8603;46.944;7.412;2023-02-28T04:43:48;10.27;;;6.40;;
16973;SDS011;8603;46.944;7.412;2023-02-28T04:46:15;8.73;;;6.00;;
16973;SDS011;8603;46.944;7.412;2023-02-28T04:48:43;9.10;;;6.50;;
16973;SDS011;8603;46.944;7.412;2023-02-28T04:51:10;6.60;;;5.67;;
16973;SDS011;8603;46.944;7.412;2023-02-28T04:53:37;8.47;;;5.90;;
16973;SDS011;8603;46.944;7.412;2023-02-28T04:56:04;6.47;;;5.50;;
16973;SDS011;8603;46.944;7.412;2023-02-28T04:58:31;6.53;;;5.80;;
16973;SDS011;8603;46.944;7.412;2023-02-28T05:01:04;7.83;;;5.97;;
16973;SDS011;8603;46.944;7.412;2023-02-28T05:03:38;7.27;;;5.73;;
16973;SDS011;8603;46.944;7.412;2023-02-28T05:06:05;8.10;;;6.13;;
16973;SDS011;8603;46.944;7.412;2023-02-28T05:08:32;10.40;;;6.80;;
16973;SDS011;8603;46.944;7.412;2023-02-28T05:10:57;7.93;;;6.23;;
16973;SDS011;8603;46.944;7.412;2023-02-28T05:13:25;10.10;;;7.00;;
16973;SDS011;8603;46.944;7.412;2023-02-28T05:15:51;10.90;;;6.30;;
16973;SDS011;8603;46.944;7.412;2023-02-28T05:18:17;8.13;;;6.53;;
16973;SDS011;8603;46.944;7.412;2023-02-28T05:20:43;9.40;;;7.10;;
16973;SDS011;8603;46.944;7.412;2023-02-28T05:23:10;9.10;;;7.07;;
16973;SDS011;8603;46.944;7.412;2023-02-28T05:25:37;9.00;;;7.17;;
16973;SDS011;8603;46.944;7.412;2023-02-28T05:28:03;11.53;;;7.07;;
16973;SDS011;8603;46.944;7.412;2023-02-28T05:30:29;7.70;;;6.70;;
16973;SDS011;8603;46.944;7.412;2023-02-28T05:32:56;10.23;;;6.73;;
16973;SDS011;8603;46.944;7.412;2023-02-28T05:35:23;8.63;;;6.70;;
16973;SDS011;8603;46.944;7.412;2023-02-28T05:37:49;10.20;;;6.87;;
16973;SDS011;8603;46.944;7.412;2023-02-28T05:40:14;10.40;;;6.87;;
16973;SDS011;8603;46.944;7.412;2023-02-28T05:42:40;11.47;;;7.57;;
16973;SDS011;8603;46.944;7.412;2023-02-28T05:45:07;9.43;;;6.93;;
16973;SDS011;8603;46.944;7.412;2023-02-28T05:47:33;10.33;;;7.80;;
16973;SDS011;8603;46.944;7.412;2023-02-28T05:49:59;9.23;;;7.17;;
16973;SDS011;8603;46.944;7.412;2023-02-28T05:52:25;9.73;;;7.30;;
16973;SDS011;8603;46.944;7.412;2023-02-28T05:54:52;10.33;;;7.50;;
16973;SDS011;8603;46.944;7.412;2023-02-28T05:57:17;10.17;;;7.93;;
16973;SDS011;8603;46.944;7.412;2023-02-28T05:59:43;10.53;;;8.10;;
16973;SDS011;8603;46.944;7.412;2023-02-28T06:02:12;10.00;;;7.37;;
16973;SDS011;8603;46.944;7.412;2023-02-28T06:04:39;11.50;;;7.13;;
16973;SDS011;8603;46.944;7.412;2023-02-28T06:07:05;12.67;;;7.80;;
16973;SDS011;8603;46.944;7.412;2023-02-28T06:09:37;10.63;;;7.50;;
16973;SDS011;8603;46.944;7.412;2023-02-28T06:12:04;11.80;;;8.00;;
16973;SDS011;8603;46.944;7.412;2023-02-28T06:14:32;10.43;;;8.07;;
16973;SDS011;8603;46.944;7.412;2023-02-28T06:16:59;9.37;;;7.93;;
16973;SDS011;8603;46.944;7.412;2023-02-28T06:19:25;9.07;;;7.63;;
16973;SDS011;8603;46.944;7.412;2023-02-28T06:21:52;11.03;;;8.47;;
16973;SDS011;8603;46.944;7.412;2023-02-28T06:24:19;9.77;;;7.80;;
16973;SDS011;8603;46.944;7.412;2023-02-28T06:26:45;11.43;;;8.47;;
16973;SDS011;8603;46.944;7.412;2023-02-28T06:29:11;11.17;;;8.07;;
16973;SDS011;8603;46.944;7.412;2023-02-28T06:31:36;10.87;;;8.37;;
16973;SDS011;8603;46.944;7.412;2023-02-28T06:34:03;11.63;;;8.27;;
16973;SDS011;8603;46.944;7.412;2023-02-28T06:36:30;10.53;;;8.17;;
16973;SDS011;8603;46.944;7.412;2023-02-28T06:38:55;12.70;;;8.43;;
16973;SDS011;8603;46.944;7.412;2023-02-28T06:41:36;12.10;;;10.32;;
16973;SDS011;8603;46.944;7.412;2023-02-28T06:44:08;10.60;;;8.30;;
16973;SDS011;8603;46.944;7.412;2023-02-28T06:46:38;12.90;;;9.10;;
16973;SDS011;8603;46.944;7.412;2023-02-28T06:49:05;12.13;;;8.37;;
16973;SDS011;8603;46.944;7.412;2023-02-28T06:51:34;12.50;;;8.40;;
16973;SDS011;8603;46.944;7.412;2023-02-28T06:54:00;10.90;;;7.83;;
16973;SDS011;8603;46.944;7.412;2023-02-28T06:56:26;11.23;;;8.43;;
16973;SDS011;8603;46.944;7.412;2023-02-28T06:58:52;11.47;;;8.47;;
16973;SDS011;8603;46.944;7.412;2023-02-28T07:01:17;10.57;;;8.00;;
16973;SDS011;8603;46.944;7.412;2023-02-28T07:03:44;12.47;;;8.93;;
16973;SDS011;8603;46.944;7.412;2023-02-28T07:06:13;10.13;;;7.73;;
16973;SDS011;8603;46.944;7.412;2023-02-28T07:08:42;14.37;;;8.97;;
16973;SDS011;8603;46.944;7.412;2023-02-28T07:11:08;13.23;;;8.97;;
16973;SDS011;8603;46.944;7.412;2023-02-28T07:13:34;12.53;;;9.17;;
16973;SDS011;8603;46.944;7.412;2023-02-28T07:16:02;11.97;;;9.43;;
16973;SDS011;8603;46.944;7.412;2023-02-28T07:18:29;10.67;;;9.07;;
16973;SDS011;8603;46.944;7.412;2023-02-28T07:20:55;13.77;;;8.90;;
16973;SDS011;8603;46.944;7.412;2023-02-28T07:23:31;13.57;;;9.17;;
16973;SDS011;8603;46.944;7.412;2023-02-28T07:25:59;9.23;;;7.70;;
16973;SDS011;8603;46.944;7.412;2023-02-28T07:28:25;11.60;;;8.73;;
16973;SDS011;8603;46.944;7.412;2023-02-28T07:30:51;11.60;;;8.27;;
16973;SDS011;8603;46.944;7.412;2023-02-28T07:33:17;14.17;;;9.07;;
16973;SDS011;8603;46.944;7.412;2023-02-28T07:35:43;12.43;;;9.17;;
16973;SDS011;8603;46.944;7.412;2023-02-28T07:38:12;11.60;;;8.70;;
16973;SDS011;8603;46.944;7.412;2023-02-28T07:40:38;12.37;;;9.23;;
16973;SDS011;8603;46.944;7.412;2023-02-28T07:43:04;13.33;;;8.23;;
16973;SDS011;8603;46.944;7.412;2023-02-28T07:45:30;12.43;;;8.30;;
16973;SDS011;8603;46.944;7.412;2023-02-28T07:47:59;10.17;;;8.30;;
16973;SDS011;8603;46.944;7.412;2023-02-28T07:50:25;11.80;;;8.07;;
16973;SDS011;8603;46.944;7.412;2023-02-28T07:52:55;13.03;;;8.43;;
16973;SDS011;8603;46.944;7.412;2023-02-28T07:55:22;12.20;;;8.17;;
16973;SDS011;8603;46.944;7.412;2023-02-28T07:57:48;11.40;;;9.03;;
16973;SDS011;8603;46.944;7.412;2023-02-28T08:00:14;12.60;;;8.50;;
16973;SDS011;8603;46.944;7.412;2023-02-28T08:02:39;11.70;;;9.37;;
16973;SDS011;8603;46.944;7.412;2023-02-28T08:05:05;12.93;;;9.27;;
16973;SDS011;8603;46.944;7.412;2023-02-28T08:07:32;11.17;;;9.07;;
16973;SDS011;8603;46.944;7.412;2023-02-28T08:09:58;12.87;;;8.50;;
16973;SDS011;8603;46.944;7.412;2023-02-28T08:12:24;12.73;;;8.90;;
16973;SDS011;8603;46.944;7.412;2023-02-28T08:14:49;12.67;;;8.53;;
16973;SDS011;8603;46.944;7.412;2023-02-28T08:17:15;11.17;;;8.77;;
16973;SDS011;8603;46.944;7.412;2023-02-28T08:19:41;13.13;;;8.47;;
16973;SDS011;8603;46.944;7.412;2023-02-28T08:22:06;11.63;;;8.47;;
16973;SDS011;8603;46.944;7.412;2023-02-28T08:24:32;10.83;;;8.20;;
16973;SDS011;8603;46.944;7.412;2023-02-28T08:26:58;13.87;;;9.40;;
16973;SDS011;8603;46.944;7.412;2023-02-28T08:29:24;10.90;;;8.87;;
16973;SDS011;8603;46.944;7.412;2023-02-28T08:31:49;12.87;;;8.73;;
16973;SDS011;8603;46.944;7.412;2023-02-28T08:34:36;12.83;;;8.93;;
16973;SDS011;8603;46.944;7.412;2023-02-28T09:01:34;13.27;;;7.83;;
16973;SDS011;8603;46.944;7.412;2023-02-28T09:14:30;12.60;;;8.00;;
16973;SDS011;8603;46.944;7.412;2023-02-28T09:17:34;10.60;;;7.57;;
16973;SDS011;8603;46.944;7.412;2023-02-28T09:42:33;9.53;;;7.23;;
16973;SDS011;8603;46.944;7.412;2023-02-28T09:45:59;11.13;;;7.30;;
16973;SDS011;8603;46.944;7.412;2023-02-28T10:14:36;13.43;;;9.00;;
16973;SDS011;8603;46.944;7.412;2023-02-28T10:17:28;12.40;;;8.93;;
16973;SDS011;8603;46.944;7.412;2023-02-28T10:19:57;9.33;;;7.07;;
16973;SDS011;8603;46.944;7.412;2023-02-28T10:25:24;9.87;;;7.57;;
16973;SDS011;8603;46.944;7.412;2023-02-28T10:28:07;8.77;;;7.63;;
16973;SDS011;8603;46.944;7.412;2023-02-28T10:30:42;9.87;;;7.40;;
16973;SDS011;8603;46.944;7.412;2023-02-28T10:35:53;10.00;;;7.40;;
16973;SDS011;8603;46.944;7.412;2023-02-28T10:38:20;11.43;;;7.87;;
16973;SDS011;8603;46.944;7.412;2023-02-28T10:41:03;10.67;;;8.57;;
16973;SDS011;8603;46.944;7.412;2023-02-28T10:43:37;8.90;;;7.70;;
16973;SDS011;8603;46.944;7.412;2023-02-28T10:46:09;10.90;;;7.90;;
16973;SDS011;8603;46.944;7.412;2023-02-28T10:51:26;11.67;;;7.87;;
16973;SDS011;8603;46.944;7.412;2023-02-28T10:54:01;9.97;;;7.83;;
16973;SDS011;8603;46.944;7.412;2023-02-28T10:56:31;12.10;;;9.30;;
16973;SDS011;8603;46.944;7.412;2023-02-28T11:04:00;10.30;;;8.93;;
16973;SDS011;8603;46.944;7.412;2023-02-28T11:06:28;11.93;;;8.57;;
16973;SDS011;8603;46.944;7.412;2023-02-28T11:12:00;11.97;;;7.97;;
16973;SDS011;8603;46.944;7.412;2023-02-28T11:14:46;9.03;;;7.60;;
16973;SDS011;8603;46.944;7.412;2023-02-28T11:17:15;10.13;;;7.83;;
16973;SDS011;8603;46.944;7.412;2023-02-28T11:19:47;11.67;;;8.60;;
16973;SDS011;8603;46.944;7.412;2023-02-28T11:22:18;12.20;;;8.93;;
16973;SDS011;8603;46.944;7.412;2023-02-28T11:24:47;12.77;;;8.87;;
16973;SDS011;8603;46.944;7.412;2023-02-28T11:30:03;11.03;;;8.67;;
16973;SDS011;8603;46.944;7.412;2023-02-28T11:32:39;10.73;;;8.20;;
16973;SDS011;8603;46.944;7.412;2023-02-28T11:35:23;12.23;;;9.07;;
16973;SDS011;8603;46.944;7.412;2023-02-28T11:38:37;11.50;;;8.40;;
16973;SDS011;8603;46.944;7.412;2023-02-28T11:41:03;11.43;;;8.63;;
16973;SDS011;8603;46.944;7.412;2023-02-28T11:52:57;10.43;;;8.37;;
16973;SDS011;8603;46.944;7.412;2023-02-28T11:55:38;13.27;;;9.10;;
16973;SDS011;8603;46.944;7.412;2023-02-28T12:06:36;11.23;;;8.47;;
16973;SDS011;8603;46.944;7.412;2023-02-28T12:15:14;9.63;;;7.63;;
16973;SDS011;8603;46.944;7.412;2023-02-28T12:20:37;11.33;;;8.37;;
16973;SDS011;8603;46.944;7.412;2023-02-28T12:28:48;12.47;;;8.00;;
16973;SDS011;8603;46.944;7.412;2023-02-28T12:31:24;11.33;;;8.33;;
16973;SDS011;8603;46.944;7.412;2023-02-28T12:34:03;12.23;;;8.97;;
16973;SDS011;8603;46.944;7.412;2023-02-28T12:36:38;9.00;;;7.60;;
16973;SDS011;8603;46.944;7.412;2023-02-28T12:39:14;10.33;;;7.47;;
16973;SDS011;8603;46.944;7.412;2023-02-28T12:42:01;12.27;;;9.00;;
16973;SDS011;8603;46.944;7.412;2023-02-28T12:45:08;10.20;;;7.73;;
16973;SDS011;8603;46.944;7.412;2023-02-28T12:47:38;14.03;;;8.77;;
16973;SDS011;8603;46.944;7.412;2023-02-28T12:50:08;11.87;;;7.87;;
16973;SDS011;8603;46.944;7.412;2023-02-28T12:55:25;10.40;;;8.23;;
16973;SDS011;8603;46.944;7.412;2023-02-28T12:58:05;9.90;;;7.80;;
16973;SDS011;8603;46.944;7.412;2023-02-28T13:01:33;11.60;;;7.37;;
16973;SDS011;8603;46.944;7.412;2023-02-28T13:03:37;10.20;;;7.30;;
16973;SDS011;8603;46.944;7.412;2023-02-28T13:09:01;10.73;;;7.80;;
16973;SDS011;8603;46.944;7.412;2023-02-28T13:11:38;10.37;;;8.10;;
16973;SDS011;8603;46.944;7.412;2023-02-28T13:17:32;10.90;;;8.23;;
16973;SDS011;8603;46.944;7.412;2023-02-28T13:22:20;9.73;;;7.97;;
16973;SDS011;8603;46.944;7.412;2023-02-28T13:27:55;10.30;;;7.60;;
16973;SDS011;8603;46.944;7.412;2023-02-28T13:38:39;11.87;;;8.43;;
16973;SDS011;8603;46.944;7.412;2023-02-28T13:44:06;10.50;;;7.63;;
16973;SDS011;8603;46.944;7.412;2023-02-28T13:51:52;11.00;;;8.80;;
16973;SDS011;8603;46.944;7.412;2023-02-28T13:57:32;10.77;;;8.37;;
16973;SDS011;8603;46.944;7.412;2023-02-28T14:05:38;12.73;;;8.80;;
16973;SDS011;8603;46.944;7.412;2023-02-28T14:08:05;11.43;;;8.30;;
16973;SDS011;8603;46.944;7.412;2023-02-28T14:10:47;13.03;;;8.77;;
16973;SDS011;8603;46.944;7.412;2023-02-28T14:16:10;13.13;;;8.30;;
16973;SDS011;8603;46.944;7.412;2023-02-28T14:18:40;10.90;;;7.90;;
16973;SDS011;8603;46.944;7.412;2023-02-28T14:23:41;14.67;;;10.13;;
16973;SDS011;8603;46.944;7.412;2023-02-28T14:38:14;14.30;;;9.03;;
16973;SDS011;8603;46.944;7.412;2023-02-28T14:40:46;12.07;;;8.53;;
16973;SDS011;8603;46.944;7.412;2023-02-28T14:43:24;10.57;;;8.57;;
16973;SDS011;8603;46.944;7.412;2023-02-28T14:45:58;10.03;;;7.67;;
16973;SDS011;8603;46.944;7.412;2023-02-28T14:48:29;12.23;;;8.57;;
16973;SDS011;8603;46.944;7.412;2023-02-28T14:50:58;11.80;;;8.03;;
16973;SDS011;8603;46.944;7.412;2023-02-28T14:53:26;11.67;;;8.50;;
16973;SDS011;8603;46.944;7.412;2023-02-28T14:55:55;11.07;;;8.30;;
16973;SDS011;8603;46.944;7.412;2023-02-28T15:00:50;10.30;;;7.23;;
16973;SDS011;8603;46.944;7.412;2023-02-28T15:03:19;10.77;;;7.60;;
16973;SDS011;8603;46.944;7.412;2023-02-28T15:05:51;11.23;;;8.40;;
16973;SDS011;8603;46.944;7.412;2023-02-28T15:08:19;10.53;;;7.93;;
16973;SDS011;8603;46.944;7.412;2023-02-28T15:11:01;13.27;;;9.53;;
16973;SDS011;8603;46.944;7.412;2023-02-28T15:13:39;14.00;;;8.87;;
16973;SDS011;8603;46.944;7.412;2023-02-28T15:16:12;11.67;;;8.00;;
16973;SDS011;8603;46.944;7.412;2023-02-28T15:18:55;13.10;;;8.80;;
16973;SDS011;8603;46.944;7.412;2023-02-28T15:21:32;11.27;;;8.50;;
16973;SDS011;8603;46.944;7.412;2023-02-28T15:26:41;15.67;;;10.20;;
16973;SDS011;8603;46.944;7.412;2023-02-28T15:29:15;13.27;;;9.30;;
16973;SDS011;8603;46.944;7.412;2023-02-28T15:31:46;13.97;;;10.63;;
16973;SDS011;8603;46.944;7.412;2023-02-28T15:34:36;15.33;;;9.87;;
16973;SDS011;8603;46.944;7.412;2023-02-28T15:37:27;15.23;;;10.53;;
16973;SDS011;8603;46.944;7.412;2023-02-28T15:40:10;14.33;;;9.10;;
16973;SDS011;8603;46.944;7.412;2023-02-28T15:45:35;13.77;;;9.53;;
16973;SDS011;8603;46.944;7.412;2023-02-28T15:50:44;12.90;;;9.00;;
16973;SDS011;8603;46.944;7.412;2023-02-28T15:53:19;12.90;;;9.80;;
16973;SDS011;8603;46.944;7.412;2023-02-28T15:56:01;12.30;;;8.33;;
16973;SDS011;8603;46.944;7.412;2023-02-28T15:58:29;13.07;;;9.00;;
16973;SDS011;8603;46.944;7.412;2023-02-28T16:01:04;13.57;;;10.80;;
16973;SDS011;8603;46.944;7.412;2023-02-28T16:03:47;11.97;;;9.47;;
16973;SDS011;8603;46.944;7.412;2023-02-28T16:08:51;12.03;;;8.67;;
16973;SDS011;8603;46.944;7.412;2023-02-28T16:11:18;13.10;;;9.57;;
16973;SDS011;8603;46.944;7.412;2023-02-28T16:13:45;11.27;;;8.60;;
16973;SDS011;8603;46.944;7.412;2023-02-28T16:16:17;14.07;;;8.97;;
16973;SDS011;8603;46.944;7.412;2023-02-28T16:18:47;11.93;;;8.90;;
16973;SDS011;8603;46.944;7.412;2023-02-28T16:21:12;11.20;;;8.57;;
16973;SDS011;8603;46.944;7.412;2023-02-28T16:23:38;14.30;;;9.87;;
16973;SDS011;8603;46.944;7.412;2023-02-28T16:26:04;10.93;;;8.23;;
16973;SDS011;8603;46.944;7.412;2023-02-28T16:28:33;14.30;;;9.83;;
16973;SDS011;8603;46.944;7.412;2023-02-28T16:31:01;12.20;;;8.50;;
16973;SDS011;8603;46.944;7.412;2023-02-28T16:33:29;12.73;;;8.73;;
16973;SDS011;8603;46.944;7.412;2023-02-28T16:35:56;11.70;;;7.87;;
16973;SDS011;8603;46.944;7.412;2023-02-28T16:38:21;9.77;;;7.70;;
16973;SDS011;8603;46.944;7.412;2023-02-28T16:40:50;12.97;;;8.87;;
16973;SDS011;8603;46.944;7.412;2023-02-28T16:43:20;10.23;;;8.67;;
16973;SDS011;8603;46.944;7.412;2023-02-28T16:45:52;12.33;;;8.43;;
16973;SDS011;8603;46.944;7.412;2023-02-28T16:48:21;12.00;;;8.60;;
16973;SDS011;8603;46.944;7.412;2023-02-28T16:50:46;13.07;;;9.47;;
16973;SDS011;8603;46.944;7.412;2023-02-28T16:53:12;11.80;;;8.70;;
16973;SDS011;8603;46.944;7.412;2023-02-28T16:55:38;11.30;;;8.27;;
16973;SDS011;8603;46.944;7.412;2023-02-28T16:58:04;12.17;;;9.13;;
16973;SDS011;8603;46.944;7.412;2023-02-28T17:00:31;13.00;;;8.87;;
16973;SDS011;8603;46.944;7.412;2023-02-28T17:02:57;13.87;;;8.30;;
16973;SDS011;8603;46.944;7.412;2023-02-28T17:05:27;12.40;;;9.37;;
16973;SDS011;8603;46.944;7.412;2023-02-28T17:08:04;16.30;;;9.90;;
16973;SDS011;8603;46.944;7.412;2023-02-28T17:10:30;15.47;;;9.20;;
16973;SDS011;8603;46.944;7.412;2023-02-28T17:12:59;15.53;;;10.83;;
16973;SDS011;8603;46.944;7.412;2023-02-28T17:15:24;13.40;;;9.73;;
16973;SDS011;8603;46.944;7.412;2023-02-28T17:17:50;16.07;;;10.00;;
16973;SDS011;8603;46.944;7.412;2023-02-28T17:20:17;16.23;;;10.43;;
16973;SDS011;8603;46.944;7.412;2023-02-28T17:22:47;12.80;;;9.43;;
16973;SDS011;8603;46.944;7.412;2023-02-28T17:25:14;13.20;;;9.40;;
16973;SDS011;8603;46.944;7.412;2023-02-28T17:27:40;15.90;;;10.67;;
16973;SDS011;8603;46.944;7.412;2023-02-28T17:30:16;13.67;;;9.60;;
16973;SDS011;8603;46.944;7.412;2023-02-28T17:32:50;14.37;;;10.07;;
16973;SDS011;8603;46.944;7.412;2023-02-28T17:35:16;18.60;;;11.60;;
16973;SDS011;8603;46.944;7.412;2023-02-28T17:37:42;13.27;;;10.33;;
16973;SDS011;8603;46.944;7.412;2023-02-28T17:40:14;12.67;;;10.10;;
16973;SDS011;8603;46.944;7.412;2023-02-28T17:42:41;15.20;;;10.00;;
16973;SDS011;8603;46.944;7.412;2023-02-28T17:45:07;14.20;;;10.57;;
16973;SDS011;8603;46.944;7.412;2023-02-28T17:47:33;13.43;;;9.53;;
16973;SDS011;8603;46.944;7.412;2023-02-28T17:49:58;16.10;;;9.63;;
16973;SDS011;8603;46.944;7.412;2023-02-28T17:52:24;12.97;;;9.57;;
16973;SDS011;8603;46.944;7.412;2023-02-28T17:54:49;13.47;;;9.80;;
16973;SDS011;8603;46.944;7.412;2023-02-28T17:57:15;15.23;;;10.70;;
16973;SDS011;8603;46.944;7.412;2023-02-28T17:59:41;15.13;;;10.20;;
16973;SDS011;8603;46.944;7.412;2023-02-28T18:02:09;14.83;;;10.57;;
16973;SDS011;8603;46.944;7.412;2023-02-28T18:04:36;14.47;;;9.73;;
16973;SDS011;8603;46.944;7.412;2023-02-28T18:07:03;15.97;;;10.30;;
16973;SDS011;8603;46.944;7.412;2023-02-28T18:09:30;14.37;;;10.90;;
16973;SDS011;8603;46.944;7.412;2023-02-28T18:12:03;17.33;;;11.13;;
16973;SDS011;8603;46.944;7.412;2023-02-28T18:14:29;14.77;;;10.80;;
16973;SDS011;8603;46.944;7.412;2023-02-28T18:16:57;13.90;;;9.77;;
16973;SDS011;8603;46.944;7.412;2023-02-28T18:19:23;13.40;;;10.20;;
16973;SDS011;8603;46.944;7.412;2023-02-28T18:21:50;17.60;;;11.63;;
16973;SDS011;8603;46.944;7.412;2023-02-28T18:24:21;15.67;;;10.73;;
16973;SDS011;8603;46.944;7.412;2023-02-28T18:26:49;15.60;;;10.77;;
16973;SDS011;8603;46.944;7.412;2023-02-28T18:29:17;14.83;;;10.67;;
16973;SDS011;8603;46.944;7.412;2023-02-28T18:31:49;15.47;;;11.23;;
16973;SDS011;8603;46.944;7.412;2023-02-28T18:34:15;15.47;;;9.47;;
16973;SDS011;8603;46.944;7.412;2023-02-28T18:36:41;15.90;;;11.40;;
16973;SDS011;8603;46.944;7.412;2023-02-28T18:39:07;17.83;;;11.20;;
16973;SDS011;8603;46.944;7.412;2023-02-28T18:41:36;15.50;;;11.07;;
16973;SDS011;8603;46.944;7.412;2023-02-28T18:44:04;16.40;;;11.33;;
16973;SDS011;8603;46.944;7.412;2023-02-28T18:46:30;16.27;;;11.23;;
16973;SDS011;8603;46.944;7.412;2023-02-28T18:48:56;14.60;;;10.73;;
16973;SDS011;8603;46.944;7.412;2023-02-28T18:51:23;16.70;;;11.50;;
16973;SDS011;8603;46.944;7.412;2023-02-28T18:53:51;18.13;;;11.53;;
16973;SDS011;8603;46.944;7.412;2023-02-28T18:56:18;16.33;;;12.33;;
16973;SDS011;8603;46.944;7.412;2023-02-28T18:58:49;19.60;;;12.77;;
16973;SDS011;8603;46.944;7.412;2023-02-28T19:01:20;16.97;;;10.93;;
16973;SDS011;8603;46.944;7.412;2023-02-28T19:03:47;19.50;;;12.63;;
16973;SDS011;8603;46.944;7.412;2023-02-28T19:06:14;18.90;;;12.33;;